The Eastern Iowa Airport Cedar Rapids US
ICAO: KCID
IATA: CID
Category: Large
Scheduled Services: Yes

Elevation: 869 ft
TransAlt. 18000 ft.

Airport Communications:
APP/DEP:119.05
ATIS:124.15
CLNC DEL:125.45
CTAF:118.7
GND:121.6
FORT DODGE RDO:122.55
TWR:118.7
UNICOM:122.95

KCID Zoom In..

Runways:

(A) RW 09 length 8600 ft width 150 ft
ILS 109.30 / hdg 89

(B) RW 13 length 6200 ft width 150 ft
---- / hdg 134

(C) RW 27 length 8600 ft width 150 ft
ILS 111.30 / hdg 269

(D) RW 31 length 6200 ft width 150 ft
---- / hdg 314

Location; KCID
Day. 19 / Time. 20.31 Zulu
* Altimeter: 29.77
* Temperature: 23° c. 73.4°f.
* Wind from: 160° Speed 10 kn with Gusts up to 19 kn.
Dewpoint: 20° c.
Visibility: 10 Statute Miles.
Clouds: Scattered 1600 ft.
Clouds: Broken 3000 ft.
Clouds: Overcast 5500 ft.

KCID 192031Z 16010G19KT 10SM SCT016 BKN030 OVC055 23/20 A2977 RMK AO2 LTG DSNT N AND NE T02280200


Wind From 160°
Speed 10 kn.

 
 
jpsmedia.com for Web Design worldairports.se 2018   terms of use